createdAt,value
2022-09-07T00:00:21.731Z,96.89
2022-09-07T00:01:21.712Z,96.78
2022-09-07T00:02:21.716Z,96.63
2022-09-07T00:03:21.780Z,96.89
2022-09-07T00:04:21.798Z,96.83
2022-09-07T00:05:21.667Z,96.83
2022-09-07T00:06:21.656Z,97.24
2022-09-07T00:07:21.651Z,96.63
2022-09-07T00:08:21.649Z,97.33
2022-09-07T00:09:21.626Z,96.53
2022-09-07T00:10:21.617Z,96.63
2022-09-07T00:11:21.606Z,96.93
2022-09-07T00:12:21.588Z,96.63
2022-09-07T00:13:21.586Z,97.24
2022-09-07T00:14:21.572Z,96.78
2022-09-07T00:15:21.562Z,96.78
2022-09-07T00:16:21.627Z,96.78
2022-09-07T00:17:21.538Z,97.33
2022-09-07T00:18:21.542Z,97.39
2022-09-07T00:19:21.513Z,97.69
2022-09-07T00:20:21.508Z,97.59
2022-09-07T00:21:21.493Z,97.59
2022-09-07T00:22:21.477Z,97.69
2022-09-07T00:23:21.478Z,97.79
2022-09-07T00:24:21.454Z,97.49
2022-09-07T00:25:21.442Z,97.59
2022-09-07T00:26:21.439Z,97.99
2022-09-07T00:27:21.418Z,97.49
2022-09-07T00:28:21.430Z,97.59
2022-09-07T00:29:21.397Z,97.69
2022-09-07T00:30:21.399Z,98.10
2022-09-07T00:31:21.453Z,98.10
2022-09-07T00:32:21.371Z,98.10
2022-09-07T00:33:21.376Z,98.30
2022-09-07T00:34:21.360Z,98.10
2022-09-07T00:35:21.333Z,97.99
2022-09-07T00:36:21.337Z,98.19
2022-09-07T00:37:21.315Z,98.14
2022-09-07T00:38:21.344Z,98.50
2022-09-07T00:39:21.287Z,98.44
2022-09-07T00:40:21.277Z,98.50
2022-09-07T00:41:21.280Z,98.24
2022-09-07T00:42:21.259Z,98.19
2022-09-07T00:43:21.262Z,98.30
2022-09-07T00:44:21.234Z,98.30
2022-09-07T00:45:21.217Z,98.65
2022-09-07T00:46:21.273Z,98.34
2022-09-07T00:47:21.203Z,98.54
2022-09-07T00:48:21.204Z,98.74
2022-09-07T00:49:21.172Z,98.74
2022-09-07T00:50:21.165Z,99.15
2022-09-07T00:51:21.146Z,99.15
2022-09-07T00:52:21.144Z,99.15
2022-09-07T00:53:21.144Z,99.25
2022-09-07T00:54:21.119Z,99.35
2022-09-07T00:55:21.101Z,98.74
2022-09-07T00:56:21.088Z,98.94
2022-09-07T00:57:21.089Z,99.05
2022-09-07T00:58:21.085Z,99.05
2022-09-07T00:59:21.055Z,99.35
2022-09-07T01:00:21.049Z,99.35
2022-09-07T01:01:21.116Z,99.25
2022-09-07T01:02:21.194Z,99.35
2022-09-07T01:03:21.037Z,98.94
2022-09-07T01:04:21.000Z,98.90
2022-09-07T01:05:20.990Z,99.35
2022-09-07T01:06:20.986Z,98.90
2022-09-07T01:07:20.974Z,98.85
2022-09-07T01:08:21.001Z,99.19
2022-09-07T01:09:20.953Z,99.30
2022-09-07T01:10:20.939Z,99.10
2022-09-07T01:11:20.928Z,99.30
2022-09-07T01:12:20.915Z,99.19
2022-09-07T01:13:20.924Z,99.50
2022-09-07T01:14:20.893Z,99.40
2022-09-07T01:15:20.884Z,99.40
2022-09-07T01:16:20.977Z,99.50
2022-09-07T01:17:20.859Z,99.80
2022-09-07T01:18:20.853Z,99.60
2022-09-07T01:19:20.833Z,99.40
2022-09-07T01:20:20.820Z,99.40
2022-09-07T01:21:20.820Z,99.30
2022-09-07T01:22:20.807Z,99.30
2022-09-07T01:23:20.803Z,99.40
2022-09-07T01:24:20.774Z,99.50
2022-09-07T01:25:20.769Z,99.50
2022-09-07T01:26:20.759Z,99.40
2022-09-07T01:27:20.748Z,99.50
2022-09-07T01:28:20.762Z,99.30
2022-09-07T01:29:20.715Z,99.50
2022-09-07T01:30:20.703Z,98.99
2022-09-07T01:31:20.772Z,99.19
2022-09-07T01:32:20.689Z,98.99
2022-09-07T01:33:20.685Z,99.10
2022-09-07T01:34:20.656Z,99.10
2022-09-07T01:35:20.653Z,99.10
2022-09-07T01:36:20.636Z,98.99
2022-09-07T01:37:20.624Z,98.90
2022-09-07T01:38:20.646Z,98.90
2022-09-07T01:39:20.612Z,98.90
2022-09-07T01:40:20.589Z,99.10
2022-09-07T01:41:20.585Z,99.30
2022-09-07T01:42:20.573Z,99.30
2022-09-07T01:43:20.569Z,98.69
2022-09-07T01:44:20.552Z,99.30
2022-09-07T01:45:20.540Z,99.30
2022-09-07T01:46:20.560Z,98.99
2022-09-07T01:47:20.510Z,98.84
2022-09-07T01:48:20.509Z,99.30
2022-09-07T01:49:20.489Z,99.30
2022-09-07T01:50:20.500Z,99.30
2022-09-07T01:51:20.465Z,98.99
2022-09-07T01:52:20.460Z,99.19
2022-09-07T01:53:20.456Z,99.60
2022-09-07T01:54:20.430Z,99.19
2022-09-07T01:55:20.421Z,99.19
2022-09-07T01:56:20.415Z,99.30
2022-09-07T01:57:20.404Z,99.30
2022-09-07T01:58:20.406Z,98.99
2022-09-07T01:59:20.373Z,99.10
2022-09-07T02:00:20.373Z,98.90
2022-09-07T02:01:20.431Z,99.30
2022-09-07T02:02:20.394Z,99.30
2022-09-07T02:03:20.342Z,99.30
2022-09-07T02:04:20.320Z,99.30
2022-09-07T02:05:20.306Z,99.40
2022-09-07T02:06:20.301Z,99.19
2022-09-07T02:07:20.286Z,99.10
2022-09-07T02:08:20.280Z,99.19
2022-09-07T02:09:20.287Z,98.99
2022-09-07T02:10:20.252Z,98.59
2022-09-07T02:11:21.227Z,98.59
2022-09-07T02:12:20.228Z,98.90
2022-09-07T02:13:20.223Z,98.39
2022-09-07T02:14:20.237Z,98.59
2022-09-07T02:15:20.199Z,98.33
2022-09-07T02:16:20.233Z,98.59
2022-09-07T02:17:20.166Z,98.99
2022-09-07T02:18:20.175Z,98.29
2022-09-07T02:19:20.143Z,98.59
2022-09-07T02:20:20.172Z,98.99
2022-09-07T02:21:20.130Z,98.39
2022-09-07T02:22:20.110Z,98.49
2022-09-07T02:23:20.112Z,98.39
2022-09-07T02:24:20.093Z,98.49
2022-09-07T02:25:20.081Z,98.29
2022-09-07T02:26:20.069Z,98.59
2022-09-07T02:27:20.058Z,98.39
2022-09-07T02:28:20.066Z,98.39
2022-09-07T02:29:20.029Z,98.49
2022-09-07T02:30:20.028Z,98.79
2022-09-07T02:31:20.089Z,98.74
2022-09-07T02:32:19.994Z,98.79
2022-09-07T02:33:20.006Z,98.90
2022-09-07T02:34:19.981Z,98.64
2022-09-07T02:35:19.967Z,98.54
2022-09-07T02:36:19.948Z,98.24
2022-09-07T02:37:19.945Z,98.24
2022-09-07T02:38:19.948Z,98.33
2022-09-07T02:39:19.916Z,98.33
2022-09-07T02:40:19.905Z,98.54
2022-09-07T02:41:19.898Z,98.54
2022-09-07T02:42:19.890Z,98.74
2022-09-07T02:43:19.887Z,98.64
2022-09-07T02:44:19.859Z,98.64
2022-09-07T02:45:19.862Z,98.48
2022-09-07T02:46:19.901Z,98.54
2022-09-07T02:47:19.832Z,98.33
2022-09-07T02:48:19.834Z,98.44
2022-09-07T02:49:19.804Z,98.68
2022-09-07T02:50:19.793Z,98.54
2022-09-07T02:51:19.796Z,98.64
2022-09-07T02:52:19.779Z,98.68
2022-09-07T02:53:19.777Z,98.68
2022-09-07T02:54:19.752Z,98.79
2022-09-07T02:55:19.734Z,98.84
2022-09-07T02:56:19.732Z,99.34
2022-09-07T02:57:19.717Z,99.14
2022-09-07T02:58:19.714Z,98.84
2022-09-07T02:59:19.698Z,98.99
2022-09-07T03:00:19.679Z,98.94
2022-09-07T03:01:19.715Z,98.94
2022-09-07T03:02:19.769Z,98.33
2022-09-07T03:03:19.663Z,99.29
2022-09-07T03:04:19.639Z,98.88
2022-09-07T03:05:19.628Z,98.79
2022-09-07T03:06:19.615Z,99.08
2022-09-07T03:07:19.602Z,99.29
2022-09-07T03:08:19.613Z,98.94
2022-09-07T03:09:19.576Z,99.39
2022-09-07T03:10:19.565Z,99.29
2022-09-07T03:11:19.560Z,98.38
2022-09-07T03:12:19.550Z,98.68
2022-09-07T03:13:19.548Z,98.38
2022-09-07T03:14:19.527Z,98.58
2022-09-07T03:15:19.517Z,98.68
2022-09-07T03:16:19.617Z,98.99
2022-09-07T03:17:19.497Z,98.28
2022-09-07T03:18:19.496Z,98.28
2022-09-07T03:19:19.475Z,98.28
2022-09-07T03:20:19.451Z,98.68
2022-09-07T03:21:19.461Z,98.68
2022-09-07T03:22:19.433Z,98.48
2022-09-07T03:23:19.444Z,98.64
2022-09-07T03:24:19.413Z,98.58
2022-09-07T03:25:19.395Z,98.38
2022-09-07T03:26:19.382Z,98.54
2022-09-07T03:27:19.376Z,98.58
2022-09-07T03:28:19.379Z,98.18
2022-09-07T03:29:19.352Z,98.48
2022-09-07T03:30:19.346Z,98.48
2022-09-07T03:31:19.378Z,98.68
2022-09-07T03:32:19.326Z,98.88
2022-09-07T03:33:19.319Z,98.58
2022-09-07T03:34:19.297Z,98.68
2022-09-07T03:35:19.289Z,98.38
2022-09-07T03:36:19.272Z,98.58
2022-09-07T03:37:19.259Z,98.48
2022-09-07T03:38:19.262Z,98.68
2022-09-07T03:39:19.236Z,98.68
2022-09-07T03:40:19.229Z,98.38
2022-09-07T03:41:19.220Z,98.48
2022-09-07T03:42:19.199Z,98.38
2022-09-07T03:43:19.204Z,98.53
2022-09-07T03:44:19.183Z,98.48
2022-09-07T03:45:19.172Z,98.79
2022-09-07T03:46:19.224Z,98.68
2022-09-07T03:47:19.139Z,98.79
2022-09-07T03:48:19.150Z,98.79
2022-09-07T03:49:19.125Z,98.73
2022-09-07T03:50:19.107Z,98.63
2022-09-07T03:51:19.096Z,99.04
2022-09-07T03:52:19.093Z,98.63
2022-09-07T03:53:19.090Z,99.04
2022-09-07T03:54:19.059Z,98.73
2022-09-07T03:55:19.050Z,98.53
2022-09-07T03:56:19.039Z,99.13
2022-09-07T03:57:19.037Z,99.24
2022-09-07T03:58:19.030Z,99.04
2022-09-07T03:59:19.005Z,99.24
2022-09-07T04:00:18.993Z,99.33
2022-09-07T04:01:19.065Z,99.24
2022-09-07T04:02:19.026Z,99.44
2022-09-07T04:03:18.971Z,98.93
2022-09-07T04:04:18.955Z,99.44
2022-09-07T04:05:18.937Z,99.24
2022-09-07T04:06:18.923Z,99.44
2022-09-07T04:07:18.921Z,99.24
2022-09-07T04:08:18.921Z,99.64
2022-09-07T04:09:18.898Z,99.64
2022-09-07T04:10:18.879Z,99.44
2022-09-07T04:11:18.866Z,99.44
2022-09-07T04:12:18.856Z,99.54
2022-09-07T04:13:18.867Z,99.44
2022-09-07T04:14:18.838Z,99.44
2022-09-07T04:15:18.856Z,99.44
2022-09-07T04:16:18.850Z,99.54
2022-09-07T04:17:18.805Z,99.94
2022-09-07T04:18:18.808Z,99.54
2022-09-07T04:19:18.773Z,99.64
2022-09-07T04:20:18.774Z,99.39
2022-09-07T04:21:18.784Z,99.24
2022-09-07T04:22:18.741Z,99.54
2022-09-07T04:23:18.755Z,99.39
2022-09-07T04:24:18.718Z,99.44
2022-09-07T04:25:18.707Z,99.33
2022-09-07T04:26:18.696Z,99.64
2022-09-07T04:27:18.686Z,99.64
2022-09-07T04:28:18.701Z,99.13
2022-09-07T04:29:18.669Z,98.93
2022-09-07T04:30:18.664Z,99.33
2022-09-07T04:31:18.714Z,99.33
2022-09-07T04:32:18.626Z,98.93
2022-09-07T04:33:18.635Z,99.44
2022-09-07T04:34:18.610Z,99.04
2022-09-07T04:35:18.597Z,99.04
2022-09-07T04:36:18.579Z,99.44
2022-09-07T04:37:18.580Z,99.13
2022-09-07T04:38:18.580Z,98.93
2022-09-07T04:39:18.555Z,99.44
2022-09-07T04:40:18.541Z,99.33
2022-09-07T04:41:18.539Z,99.64
2022-09-07T04:42:18.518Z,99.54
2022-09-07T04:43:18.513Z,99.64
2022-09-07T04:44:18.494Z,99.24
2022-09-07T04:45:18.478Z,99.24
2022-09-07T04:46:18.589Z,99.24
2022-09-07T04:47:18.460Z,99.13
2022-09-07T04:48:18.460Z,98.93
2022-09-07T04:49:18.439Z,99.54
2022-09-07T04:50:18.425Z,98.93
2022-09-07T04:51:18.416Z,99.04
2022-09-07T04:52:18.396Z,98.83
2022-09-07T04:53:18.398Z,98.93
2022-09-07T04:54:18.384Z,99.44
2022-09-07T04:55:18.362Z,99.44
2022-09-07T04:56:18.356Z,99.04
2022-09-07T04:57:18.343Z,99.33
2022-09-07T04:58:18.338Z,98.93
2022-09-07T04:59:18.315Z,99.58
2022-09-07T05:00:18.309Z,99.13
2022-09-07T05:01:18.409Z,99.58
2022-09-07T05:02:18.337Z,99.44
2022-09-07T05:03:18.278Z,99.84
2022-09-07T05:04:18.274Z,99.68
2022-09-07T05:05:18.255Z,99.54
2022-09-07T05:06:18.236Z,99.54
2022-09-07T05:07:18.222Z,99.64
2022-09-07T05:08:18.225Z,99.33
2022-09-07T05:09:18.199Z,99.44
2022-09-07T05:10:18.201Z,99.64
2022-09-07T05:11:18.181Z,99.64
2022-09-07T05:12:18.165Z,99.64
2022-09-07T05:13:18.165Z,99.79
2022-09-07T05:14:18.149Z,99.88
2022-09-07T05:15:18.130Z,99.99
2022-09-07T05:16:18.185Z,99.74
2022-09-07T05:17:18.116Z,99.58
2022-09-07T05:18:18.114Z,99.58
2022-09-07T05:19:18.094Z,99.54
2022-09-07T05:20:20.257Z,99.48
2022-09-07T05:21:18.062Z,99.94
2022-09-07T05:22:18.067Z,99.58
2022-09-07T05:23:18.054Z,99.64
2022-09-07T05:24:18.036Z,99.99
2022-09-07T05:25:18.020Z,99.84
2022-09-07T05:26:18.009Z,99.88
2022-09-07T05:27:18.002Z,99.74
2022-09-07T05:28:19.570Z,99.64
2022-09-07T05:31:19.762Z,99.94
2022-09-07T05:32:17.947Z,99.99
2022-09-07T05:33:17.951Z,99.99
2022-09-07T05:34:33.414Z,99.99
2022-09-07T05:35:18.912Z,99.99
2022-09-07T05:36:17.897Z,99.99
2022-09-07T05:37:17.883Z,99.94
2022-09-07T05:38:17.897Z,99.99
2022-09-07T05:39:17.861Z,99.99
2022-09-07T05:40:17.918Z,99.99
2022-09-07T05:41:17.840Z,99.99
2022-09-07T05:42:17.835Z,99.99
2022-09-07T05:43:17.846Z,99.99
2022-09-07T05:45:18.791Z,99.99
2022-09-07T05:46:17.879Z,99.99
2022-09-07T05:47:17.781Z,99.99
2022-09-07T05:48:17.779Z,99.29
2022-09-07T05:49:17.764Z,99.89
2022-09-07T05:50:17.740Z,99.59
2022-09-07T05:51:17.736Z,99.79
2022-09-07T05:52:17.734Z,99.99
2022-09-07T05:53:17.724Z,99.99
2022-09-07T05:54:17.693Z,99.89
2022-09-07T05:55:29.499Z,99.59
2022-09-07T05:56:18.678Z,99.44
2022-09-07T05:57:17.665Z,99.49
2022-09-07T05:58:17.699Z,99.54
2022-09-07T05:59:17.642Z,99.59
2022-09-07T06:00:17.633Z,99.69
2022-09-07T06:01:17.629Z,99.54
2022-09-07T06:02:17.718Z,99.65
2022-09-07T06:03:17.794Z,99.85
2022-09-07T06:04:17.610Z,99.59
2022-09-07T06:05:17.577Z,99.39
2022-09-07T06:06:17.573Z,99.39
2022-09-07T06:07:21.997Z,99.59
2022-09-07T06:08:18.554Z,99.69
2022-09-07T06:09:17.518Z,99.59
2022-09-07T06:11:18.504Z,99.59
2022-09-07T06:12:17.492Z,99.29
2022-09-07T06:13:17.491Z,99.39
2022-09-07T06:14:17.460Z,99.59
2022-09-07T06:15:17.446Z,99.69
2022-09-07T06:16:17.537Z,99.49
2022-09-07T06:17:17.429Z,99.44
2022-09-07T06:18:17.435Z,98.84
2022-09-07T06:19:17.401Z,98.88
2022-09-07T06:20:17.402Z,99.39
2022-09-07T06:21:17.382Z,99.49
2022-09-07T06:22:17.368Z,99.65
2022-09-07T06:23:17.369Z,99.08
2022-09-07T06:24:17.349Z,99.39
2022-09-07T06:25:17.331Z,99.34
2022-09-07T06:26:17.328Z,99.19
2022-09-07T06:27:17.317Z,99.24
2022-09-07T06:28:17.317Z,99.04
2022-09-07T06:29:17.294Z,98.94
2022-09-07T06:30:17.281Z,99.10
2022-09-07T06:31:17.307Z,98.94
2022-09-07T06:33:21.983Z,98.90
2022-09-07T06:34:17.232Z,98.49
2022-09-07T06:35:17.214Z,98.49
2022-09-07T06:36:17.256Z,98.59
2022-09-07T06:37:17.195Z,98.54
2022-09-07T06:38:17.210Z,98.19
2022-09-07T06:39:17.172Z,97.49
2022-09-07T06:40:17.183Z,97.58
2022-09-07T06:42:18.250Z,97.69
2022-09-07T06:43:17.136Z,97.28
2022-09-07T06:44:17.116Z,97.78
2022-09-07T06:45:17.106Z,97.69
2022-09-07T06:47:18.087Z,97.64
2022-09-07T06:48:17.081Z,97.64
2022-09-07T06:49:17.065Z,97.64
2022-09-07T06:50:17.047Z,96.83
2022-09-07T06:51:17.046Z,97.03
2022-09-07T06:52:17.019Z,97.53
2022-09-07T06:55:18.003Z,96.89
2022-09-07T06:56:16.988Z,96.93
2022-09-07T06:57:16.962Z,96.69
2022-09-07T06:58:16.965Z,96.59
2022-09-07T06:59:16.953Z,96.59
2022-09-07T07:00:16.938Z,96.53
2022-09-07T07:01:16.984Z,96.48
2022-09-07T07:02:16.930Z,96.48
2022-09-07T07:03:16.951Z,95.83
2022-09-07T07:04:16.883Z,95.83
2022-09-07T07:05:16.884Z,96.59
2022-09-07T07:06:16.871Z,96.94
2022-09-07T07:07:16.850Z,96.44
2022-09-07T07:08:16.866Z,96.14
2022-09-07T07:09:16.822Z,96.54
2022-09-07T07:10:19.764Z,95.69
2022-09-07T07:11:17.816Z,95.49
2022-09-07T07:13:47.174Z,94.48
2022-09-07T07:14:47.168Z,94.08
2022-09-07T07:15:47.161Z,93.78
2022-09-07T07:16:47.177Z,93.48
2022-09-07T07:17:53.200Z,93.63
2022-09-07T07:18:48.136Z,93.68
2022-09-07T07:19:47.109Z,93.13
2022-09-07T07:20:48.095Z,93.23
2022-09-07T07:22:48.071Z,92.73
2022-09-07T07:23:47.057Z,92.69
2022-09-07T07:24:47.086Z,93.24
2022-09-07T07:25:47.036Z,92.94
2022-09-07T07:26:47.035Z,92.24
2022-09-07T07:27:47.019Z,92.24
2022-09-07T07:29:03.562Z,92.74
2022-09-07T07:29:48.010Z,91.69
2022-09-07T07:30:46.987Z,91.69
2022-09-07T07:31:47.148Z,90.75
2022-09-07T07:32:46.965Z,90.25
2022-09-07T07:33:47.008Z,90.55
2022-09-07T07:34:46.961Z,89.75
2022-09-07T07:35:46.951Z,88.34
2022-09-07T07:36:46.915Z,88.75
2022-09-07T07:37:46.902Z,89.00
2022-09-07T07:39:02.932Z,88.80
2022-09-07T07:41:57.353Z,88.16
2022-09-07T07:42:47.875Z,88.76
2022-09-07T07:43:46.848Z,87.96
2022-09-07T07:44:46.907Z,87.52
2022-09-07T07:46:47.870Z,86.87
2022-09-07T07:47:46.803Z,85.51
2022-09-07T07:48:46.790Z,85.31
2022-09-07T07:49:46.929Z,84.91
2022-09-07T07:50:46.798Z,86.32
2022-09-07T07:53:41.134Z,85.68
2022-09-07T07:53:47.736Z,84.71
2022-09-07T07:54:46.736Z,85.21
2022-09-07T07:55:46.709Z,84.87
2022-09-07T07:56:46.702Z,85.31
2022-09-07T07:57:46.702Z,85.27
2022-09-07T07:58:46.683Z,85.77
2022-09-07T07:59:46.681Z,86.18
2022-09-07T08:00:55.640Z,85.43
2022-09-07T08:01:47.842Z,84.63
2022-09-07T08:02:46.737Z,84.07
2022-09-07T08:03:46.629Z,83.77
2022-09-07T08:04:46.629Z,83.97
2022-09-07T08:05:46.620Z,84.67
2022-09-07T08:06:46.581Z,84.07
2022-09-07T08:07:46.577Z,84.07
2022-09-07T08:08:46.568Z,83.57
2022-09-07T08:09:46.561Z,83.07
2022-09-07T08:10:46.557Z,83.47
2022-09-07T08:11:46.529Z,83.17
2022-09-07T08:12:46.573Z,83.13
2022-09-07T08:13:46.538Z,83.67
2022-09-07T08:14:46.507Z,83.43
2022-09-07T08:15:46.868Z,83.59
2022-09-07T08:16:46.620Z,83.59
2022-09-07T08:17:46.477Z,82.63
2022-09-07T08:18:47.192Z,81.49
2022-09-07T08:19:46.457Z,81.59
2022-09-07T08:20:46.438Z,81.13
2022-09-07T08:21:46.440Z,80.89
2022-09-07T08:22:46.410Z,81.49
2022-09-07T08:23:46.424Z,80.99
2022-09-07T08:24:46.406Z,80.79
2022-09-07T08:25:46.375Z,80.79
2022-09-07T08:26:46.370Z,81.39
2022-09-07T08:27:46.344Z,80.65
2022-09-07T08:28:46.355Z,80.55
2022-09-07T08:29:46.356Z,80.32
2022-09-07T08:30:46.319Z,80.15
2022-09-07T08:31:46.340Z,80.32
2022-09-07T08:32:46.290Z,80.08
2022-09-07T08:33:46.280Z,79.58
2022-09-07T08:34:46.286Z,78.08
2022-09-07T08:35:46.258Z,79.28
2022-09-07T08:36:46.258Z,78.64
2022-09-07T08:37:46.265Z,78.34
2022-09-07T08:38:46.233Z,78.00
2022-09-07T08:39:46.319Z,76.21
2022-09-07T08:40:46.208Z,76.71
2022-09-07T08:41:46.191Z,77.70
2022-09-07T08:42:46.190Z,76.37
2022-09-07T08:43:49.078Z,76.87
2022-09-07T08:44:46.181Z,75.57
2022-09-07T08:45:46.146Z,74.41
2022-09-07T08:46:46.231Z,74.48
2022-09-07T08:47:46.133Z,75.41
2022-09-07T08:48:46.126Z,74.51
2022-09-07T08:49:46.117Z,75.71
2022-09-07T08:50:46.102Z,75.55
2022-09-07T08:51:46.086Z,75.45
2022-09-07T08:52:46.076Z,75.85
2022-09-07T08:53:46.101Z,75.41
2022-09-07T08:54:46.062Z,74.21
2022-09-07T08:55:46.045Z,74.75
2022-09-07T08:57:47.015Z,75.45
2022-09-07T08:58:49.104Z,76.15
2022-09-07T08:59:46.011Z,76.25
2022-09-07T09:00:46.000Z,75.21
2022-09-07T09:02:27.045Z,75.11
2022-09-07T09:03:28.726Z,75.48
2022-09-07T09:05:47.034Z,73.54
2022-09-07T09:06:46.040Z,72.74
2022-09-07T09:07:45.917Z,71.35
2022-09-07T09:08:45.896Z,71.01
2022-09-07T09:09:45.919Z,70.42
2022-09-07T09:10:45.876Z,70.39
2022-09-07T09:11:45.868Z,70.29
2022-09-07T09:12:45.853Z,70.85
2022-09-07T09:13:45.845Z,69.76
2022-09-07T09:14:45.841Z,69.76
2022-09-07T09:15:45.874Z,69.26
2022-09-07T09:16:45.812Z,69.62
2022-09-07T09:17:45.795Z,69.29
2022-09-07T09:18:45.800Z,68.27
2022-09-07T09:19:45.792Z,67.27
2022-09-07T09:20:45.769Z,67.34
2022-09-07T09:21:45.764Z,67.05
2022-09-07T09:22:45.747Z,67.41
2022-09-07T09:23:45.738Z,65.59
2022-09-07T09:24:45.744Z,65.26
2022-09-07T09:25:45.733Z,65.76
2022-09-07T09:26:45.743Z,65.06
2022-09-07T09:27:45.696Z,64.31
2022-09-07T09:28:45.681Z,64.60
2022-09-07T09:29:45.685Z,63.78
2022-09-07T09:30:45.689Z,63.39
2022-09-07T09:31:45.726Z,63.28
2022-09-07T09:32:45.635Z,63.12
2022-09-07T09:33:45.621Z,63.91
2022-09-07T09:34:45.624Z,63.31
2022-09-07T09:35:45.612Z,64.47
2022-09-07T09:36:45.597Z,65.59
2022-09-07T09:37:45.589Z,67.01
2022-09-07T09:38:45.571Z,66.94
2022-09-07T09:39:45.605Z,67.14
2022-09-07T09:40:45.567Z,68.57
2022-09-07T09:41:45.556Z,68.66
2022-09-07T09:42:45.534Z,69.06
2022-09-07T09:43:45.522Z,68.43
2022-09-07T09:44:45.591Z,68.10
2022-09-07T09:46:46.994Z,66.12
2022-09-07T09:47:45.622Z,65.09
2022-09-07T09:48:45.465Z,64.50
2022-09-07T09:49:45.461Z,64.67
2022-09-07T09:52:51.704Z,61.74
2022-09-07T09:53:46.416Z,60.88
2022-09-07T09:54:45.419Z,61.44
2022-09-07T09:55:45.390Z,62.40
2022-09-07T09:56:45.381Z,62.47
2022-09-07T09:59:04.874Z,60.96
2022-09-07T10:00:05.749Z,59.02
2022-09-07T10:04:06.273Z,57.47
2022-09-07T10:04:46.335Z,59.18
2022-09-07T10:05:45.285Z,58.78
2022-09-07T10:06:45.269Z,59.58
2022-09-07T10:07:45.260Z,60.24
2022-09-07T10:08:45.248Z,60.60
2022-09-07T10:09:45.240Z,60.87
2022-09-07T10:10:45.400Z,57.68
2022-09-07T10:12:46.196Z,58.18
2022-09-07T10:13:45.212Z,58.54
2022-09-07T10:14:45.184Z,56.64
2022-09-07T10:15:45.226Z,54.84
2022-09-07T10:16:45.895Z,54.84
2022-09-07T10:17:45.146Z,54.52
2022-09-07T10:18:45.134Z,54.45
2022-09-07T10:19:45.125Z,55.51
2022-09-07T10:20:45.134Z,53.34
2022-09-07T10:21:45.109Z,54.35
2022-09-07T10:22:47.525Z,55.83
2022-09-07T10:23:46.080Z,54.74
2022-09-07T10:24:45.078Z,54.84
2022-09-07T10:25:45.074Z,55.04
2022-09-07T10:26:45.054Z,54.82
2022-09-07T10:27:45.087Z,54.72
2022-09-07T10:29:15.228Z,54.84
2022-09-07T10:29:46.045Z,55.51
2022-09-07T10:30:45.209Z,54.43
2022-09-07T10:31:45.073Z,55.70
2022-09-07T10:32:44.995Z,54.79
2022-09-07T10:34:25.744Z,54.30
2022-09-07T10:34:45.998Z,54.76
2022-09-07T10:35:45.005Z,54.93
2022-09-07T10:36:44.940Z,53.95
2022-09-07T10:37:44.933Z,53.95
2022-09-07T10:38:44.973Z,53.27
2022-09-07T10:39:44.969Z,53.14
2022-09-07T10:40:44.929Z,52.94
2022-09-07T10:41:44.899Z,52.06
2022-09-07T10:43:20.673Z,51.57
2022-09-07T10:43:45.868Z,51.57
2022-09-07T10:44:44.919Z,51.89
2022-09-07T10:45:44.876Z,51.52
2022-09-07T10:47:00.404Z,52.82
2022-09-07T10:47:45.837Z,53.96
2022-09-07T10:48:44.834Z,54.35
2022-09-07T10:50:21.929Z,54.05
2022-09-07T10:50:45.814Z,54.47
2022-09-07T10:51:44.782Z,55.53
2022-09-07T10:52:44.777Z,55.73
2022-09-07T10:53:44.901Z,55.95
2022-09-07T10:54:44.752Z,55.66
2022-09-07T10:55:44.783Z,55.33
2022-09-07T10:56:44.740Z,54.64
2022-09-07T10:57:48.900Z,54.72
2022-09-07T11:00:13.574Z,54.62
2022-09-07T11:00:45.699Z,54.62
2022-09-07T11:01:44.804Z,54.79
2022-09-07T11:03:24.795Z,54.99
2022-09-07T11:03:45.892Z,54.37
2022-09-07T11:04:44.735Z,53.95
2022-09-07T11:05:44.676Z,52.87
2022-09-07T11:06:44.627Z,53.92
2022-09-07T11:07:44.625Z,53.83
2022-09-07T11:09:45.600Z,53.70
2022-09-07T11:10:44.615Z,52.69
2022-09-07T11:12:45.585Z,50.81
2022-09-07T11:14:08.984Z,51.42
2022-09-07T11:14:45.536Z,50.34
2022-09-07T11:15:44.591Z,51.15
2022-09-07T11:16:52.112Z,51.25
2022-09-07T11:17:49.374Z,52.06
2022-09-07T11:18:45.500Z,52.35
2022-09-07T11:19:44.485Z,51.98
2022-09-07T11:20:44.502Z,51.22
2022-09-07T11:21:59.788Z,52.65
2022-09-07T11:22:45.457Z,54.55
2022-09-07T11:23:44.458Z,54.25
2022-09-07T11:24:44.534Z,54.68
2022-09-07T11:25:46.593Z,55.46
2022-09-07T11:26:44.415Z,55.66
2022-09-07T11:27:44.453Z,55.66
2022-09-07T11:28:44.651Z,56.05
2022-09-07T11:29:44.391Z,55.76
2022-09-07T11:30:44.419Z,56.27
2022-09-07T11:31:44.362Z,56.77
2022-09-07T11:32:44.354Z,56.80
2022-09-07T11:34:23.707Z,56.21
2022-09-07T11:34:45.458Z,56.70
2022-09-07T11:35:44.377Z,57.22
2022-09-07T11:36:44.410Z,56.82
2022-09-07T11:37:45.235Z,58.43
2022-09-07T11:38:44.351Z,57.74
2022-09-07T11:39:44.568Z,59.34
2022-09-07T11:40:44.281Z,58.14
2022-09-07T11:41:44.284Z,57.64
2022-09-07T11:42:44.479Z,58.83
2022-09-07T11:43:44.239Z,58.43
2022-09-07T11:44:44.222Z,59.02
2022-09-07T11:45:44.220Z,58.04
2022-09-07T11:46:44.252Z,58.23
2022-09-07T11:47:44.192Z,58.60
2022-09-07T11:48:44.183Z,58.20
2022-09-07T11:49:47.710Z,57.78
2022-09-07T11:50:45.172Z,58.47
2022-09-07T11:51:44.147Z,56.67
2022-09-07T11:52:44.139Z,56.87
2022-09-07T11:53:44.126Z,56.64
2022-09-07T11:54:44.119Z,55.56
2022-09-07T11:55:44.120Z,56.02
2022-09-07T11:56:45.710Z,56.32
2022-09-07T11:57:44.083Z,56.32
2022-09-07T11:58:44.074Z,56.10
2022-09-07T11:59:44.059Z,54.52
2022-09-07T12:00:44.064Z,55.77
2022-09-07T12:01:44.038Z,54.99
2022-09-07T12:02:58.981Z,54.20
2022-09-07T12:03:45.142Z,54.69
2022-09-07T12:04:44.050Z,53.39
2022-09-07T12:05:44.133Z,53.88
2022-09-07T12:06:43.986Z,54.30
2022-09-07T12:07:43.975Z,53.81
2022-09-07T12:08:43.972Z,53.22
2022-09-07T12:09:43.951Z,53.74
2022-09-07T12:10:43.961Z,54.72
2022-09-07T12:11:43.929Z,54.60
2022-09-07T12:12:43.925Z,54.60
2022-09-07T12:13:43.914Z,54.17
2022-09-07T12:14:43.896Z,53.68
2022-09-07T12:15:44.002Z,53.29
2022-09-07T12:16:43.873Z,52.89
2022-09-07T12:17:43.878Z,53.85
2022-09-07T12:18:43.861Z,52.97
2022-09-07T12:19:43.851Z,51.98
2022-09-07T12:20:43.863Z,52.48
2022-09-07T12:21:43.853Z,52.67
2022-09-07T12:22:43.828Z,52.58
2022-09-07T12:23:43.811Z,53.39
2022-09-07T12:24:43.792Z,52.97
2022-09-07T12:25:43.787Z,53.06
2022-09-07T12:26:43.786Z,52.65
2022-09-07T12:27:43.765Z,51.45
2022-09-07T12:28:43.752Z,51.15
2022-09-07T12:29:45.394Z,51.62
2022-09-07T12:30:43.782Z,50.90
2022-09-07T12:31:57.245Z,50.02
2022-09-07T12:33:00.195Z,50.90
2022-09-07T12:33:44.696Z,49.73
2022-09-07T12:34:43.690Z,49.80
2022-09-07T12:35:43.685Z,48.72
2022-09-07T12:36:43.680Z,49.60
2022-09-07T12:37:43.779Z,50.98
2022-09-07T12:38:43.643Z,50.22
2022-09-07T12:39:43.725Z,50.81
2022-09-07T12:40:43.629Z,51.52
2022-09-07T12:41:44.530Z,51.32
2022-09-07T12:42:43.636Z,51.25
2022-09-07T12:43:43.589Z,51.67
2022-09-07T12:44:43.586Z,52.06
2022-09-07T12:45:43.578Z,52.15
2022-09-07T12:46:43.616Z,51.17
2022-09-07T12:47:43.548Z,51.54
2022-09-07T12:48:43.539Z,50.49
2022-09-07T12:49:43.529Z,50.68
2022-09-07T12:50:43.527Z,50.81
2022-09-07T12:52:44.494Z,52.21
2022-09-07T12:53:43.539Z,51.52
2022-09-07T12:54:43.473Z,52.01
2022-09-07T12:56:45.150Z,51.42
2022-09-07T12:57:43.481Z,52.21
2022-09-07T12:58:43.439Z,51.42
2022-09-07T12:59:43.428Z,50.90
2022-09-07T13:00:43.449Z,51.10
2022-09-07T13:01:43.931Z,50.71
2022-09-07T13:02:43.526Z,51.17
2022-09-07T13:03:51.824Z,50.88
2022-09-07T13:04:44.382Z,51.05
2022-09-07T13:05:43.365Z,50.83
2022-09-07T13:07:44.337Z,50.51
2022-09-07T13:08:43.332Z,49.70
2022-09-07T13:09:43.347Z,49.90
2022-09-07T13:10:43.304Z,49.11
2022-09-07T13:11:43.318Z,49.33
2022-09-07T13:12:58.576Z,48.55
2022-09-07T13:14:44.262Z,49.36
2022-09-07T13:15:43.348Z,49.16
2022-09-07T13:17:44.231Z,50.07
2022-09-07T13:18:44.050Z,49.38
2022-09-07T13:19:43.216Z,49.58
2022-09-07T13:20:43.197Z,49.70
2022-09-07T13:21:43.213Z,51.20
2022-09-07T13:22:43.180Z,50.71
2022-09-07T13:23:43.180Z,51.52
2022-09-07T13:24:46.290Z,51.32
2022-09-07T13:25:43.171Z,51.42
2022-09-07T13:26:43.152Z,51.22